createdAt,value
2023-05-17T00:00:05.817Z,99.99
2023-05-17T00:01:05.437Z,99.99
2023-05-17T00:02:05.296Z,99.99
2023-05-17T00:03:05.101Z,99.99
2023-05-17T00:04:04.989Z,99.99
2023-05-17T00:05:05.307Z,99.99
2023-05-17T00:06:04.323Z,99.99
2023-05-17T00:07:06.053Z,99.99
2023-05-17T00:08:05.899Z,99.99
2023-05-17T00:09:04.340Z,99.99
2023-05-17T00:10:04.272Z,99.99
2023-05-17T00:11:06.159Z,99.99
2023-05-17T00:12:05.741Z,99.99
2023-05-17T00:13:04.236Z,99.99
2023-05-17T00:14:05.698Z,99.99
2023-05-17T00:15:05.310Z,99.99
2023-05-17T00:16:04.220Z,99.99
2023-05-17T00:17:06.054Z,99.99
2023-05-17T00:18:04.950Z,99.99
2023-05-17T00:19:05.281Z,99.99
2023-05-17T00:20:04.881Z,99.99
2023-05-17T00:21:04.210Z,99.99
2023-05-17T00:22:05.680Z,99.99
2023-05-17T00:23:05.088Z,99.99
2023-05-17T00:24:04.131Z,99.99
2023-05-17T00:25:05.922Z,99.99
2023-05-17T00:26:05.648Z,99.99
2023-05-17T00:27:04.077Z,99.99
2023-05-17T00:28:05.896Z,99.99
2023-05-17T00:29:05.500Z,99.99
2023-05-17T00:30:04.069Z,99.99
2023-05-17T00:31:05.873Z,99.99
2023-05-17T00:32:05.201Z,99.99
2023-05-17T00:33:04.078Z,99.99
2023-05-17T00:34:05.782Z,99.99
2023-05-17T00:35:04.877Z,99.99
2023-05-17T00:36:04.011Z,99.99
2023-05-17T00:37:05.958Z,99.99
2023-05-17T00:38:05.730Z,99.99
2023-05-17T00:39:05.005Z,99.99
2023-05-17T00:40:04.811Z,99.99
2023-05-17T00:41:04.726Z,99.99
2023-05-17T00:42:04.646Z,99.99
2023-05-17T00:43:03.980Z,99.99
2023-05-17T00:44:04.616Z,99.99
2023-05-17T00:45:03.909Z,99.99
2023-05-17T00:46:04.578Z,99.99
2023-05-17T00:47:03.913Z,99.99
2023-05-17T00:48:04.669Z,99.99
2023-05-17T00:49:03.867Z,99.99
2023-05-17T00:50:05.295Z,99.99
2023-05-17T00:51:05.128Z,99.99
2023-05-17T00:52:03.828Z,99.99
2023-05-17T00:53:05.222Z,99.99
2023-05-17T00:54:04.658Z,99.99
2023-05-17T00:55:03.828Z,99.99
2023-05-17T00:56:05.364Z,99.99
2023-05-17T00:57:05.061Z,99.99
2023-05-17T00:58:03.769Z,99.99
2023-05-17T00:59:05.218Z,99.99
2023-05-17T01:00:04.714Z,99.99
2023-05-17T01:01:04.451Z,99.99
2023-05-17T01:02:03.724Z,99.99
2023-05-17T01:03:04.497Z,99.99
2023-05-17T01:04:03.878Z,99.99
2023-05-17T01:05:05.254Z,99.99
2023-05-17T01:06:04.579Z,99.99
2023-05-17T01:07:03.666Z,99.99
2023-05-17T01:08:04.600Z,99.99
2023-05-17T01:09:03.667Z,99.99
2023-05-17T01:10:05.541Z,99.99
2023-05-17T01:11:04.797Z,99.99
2023-05-17T01:12:03.636Z,99.99
2023-05-17T01:13:05.555Z,99.99
2023-05-17T01:14:05.187Z,99.99
2023-05-17T01:15:03.629Z,99.99
2023-05-17T01:16:03.657Z,99.99
2023-05-17T01:17:05.286Z,99.99
2023-05-17T01:18:05.002Z,99.99
2023-05-17T01:19:03.656Z,99.99
2023-05-17T01:20:04.307Z,99.99
2023-05-17T01:21:03.557Z,99.99
2023-05-17T01:22:05.547Z,99.99
2023-05-17T01:23:05.165Z,99.99
2023-05-17T01:24:03.538Z,99.99
2023-05-17T01:25:04.708Z,99.99
2023-05-17T01:26:04.058Z,99.99
2023-05-17T01:27:04.302Z,99.99
2023-05-17T01:28:03.499Z,99.99
2023-05-17T01:29:05.161Z,99.99
2023-05-17T01:30:03.451Z,99.99
2023-05-17T01:31:04.231Z,99.99
2023-05-17T01:32:03.408Z,99.99
2023-05-17T01:33:04.308Z,99.99
2023-05-17T01:34:03.504Z,99.99
2023-05-17T01:35:04.098Z,99.99
2023-05-17T01:36:03.386Z,99.99
2023-05-17T01:37:04.886Z,99.99
2023-05-17T01:38:04.731Z,99.99
2023-05-17T01:39:05.027Z,99.99
2023-05-17T01:40:03.354Z,99.99
2023-05-17T01:41:04.896Z,99.99
2023-05-17T01:42:04.226Z,99.99
2023-05-17T01:43:03.310Z,99.99
2023-05-17T01:44:04.827Z,99.99
2023-05-17T01:45:04.226Z,99.99
2023-05-17T01:46:03.288Z,99.99
2023-05-17T01:47:04.968Z,99.99
2023-05-17T01:48:04.377Z,99.99
2023-05-17T01:49:04.381Z,99.99
2023-05-17T01:50:03.273Z,99.99
2023-05-17T01:51:04.107Z,99.99
2023-05-17T01:52:03.243Z,99.99
2023-05-17T01:53:05.009Z,99.99
2023-05-17T01:54:03.188Z,99.99
2023-05-17T01:55:05.306Z,99.99
2023-05-17T01:56:04.850Z,99.99
2023-05-17T01:57:04.011Z,99.99
2023-05-17T01:58:03.960Z,99.99
2023-05-17T01:59:03.126Z,99.99
2023-05-17T02:00:04.952Z,99.99
2023-05-17T02:01:04.687Z,99.99
2023-05-17T02:02:03.115Z,99.99
2023-05-17T02:03:04.815Z,99.99
2023-05-17T02:04:04.395Z,99.99
2023-05-17T02:05:04.770Z,99.99
2023-05-17T02:06:04.007Z,99.99
2023-05-17T02:07:03.078Z,99.99
2023-05-17T02:08:04.889Z,99.99
2023-05-17T02:09:04.167Z,99.99
2023-05-17T02:10:03.044Z,99.99
2023-05-17T02:11:03.770Z,99.99
2023-05-17T02:12:03.094Z,99.99
2023-05-17T02:13:04.248Z,99.99
2023-05-17T02:14:03.768Z,99.99
2023-05-17T02:15:03.815Z,99.99
2023-05-17T02:16:02.968Z,99.99
2023-05-17T02:17:03.779Z,99.99
2023-05-17T02:18:03.116Z,99.99
2023-05-17T02:19:04.336Z,99.99
2023-05-17T02:20:03.899Z,99.99
2023-05-17T02:21:02.920Z,99.99
2023-05-17T02:22:03.610Z,99.99
2023-05-17T02:23:02.888Z,99.99
2023-05-17T02:24:04.301Z,99.99
2023-05-17T02:25:03.908Z,99.99
2023-05-17T02:26:04.307Z,99.99
2023-05-17T02:27:02.881Z,99.99
2023-05-17T02:28:02.860Z,99.99
2023-05-17T02:29:04.634Z,99.99
2023-05-17T02:30:03.978Z,99.99
2023-05-17T02:31:02.838Z,99.99
2023-05-17T02:32:03.677Z,99.99
2023-05-17T02:33:03.477Z,99.99
2023-05-17T02:34:02.993Z,99.99
2023-05-17T02:35:04.362Z,99.99
2023-05-17T02:36:04.883Z,99.99
2023-05-17T02:37:03.559Z,99.99
2023-05-17T02:38:03.698Z,99.99
2023-05-17T02:39:02.721Z,99.99
2023-05-17T02:40:04.604Z,99.99
2023-05-17T02:41:04.523Z,99.99
2023-05-17T02:42:03.595Z,99.99
2023-05-17T02:43:02.701Z,99.99
2023-05-17T02:44:04.494Z,99.99
2023-05-17T02:45:04.344Z,99.99
2023-05-17T02:46:02.719Z,99.99
2023-05-17T02:47:04.542Z,99.99
2023-05-17T02:48:04.004Z,99.99
2023-05-17T02:49:02.638Z,99.99
2023-05-17T02:50:04.615Z,99.99
2023-05-17T02:51:03.788Z,99.99
2023-05-17T02:52:02.616Z,99.99
2023-05-17T02:53:03.408Z,99.99
2023-05-17T02:54:02.587Z,99.99
2023-05-17T02:55:04.405Z,99.99
2023-05-17T02:56:03.586Z,99.99
2023-05-17T02:57:02.578Z,99.99
2023-05-17T02:58:03.279Z,99.99
2023-05-17T02:59:03.383Z,99.99
2023-05-17T03:00:02.560Z,99.99
2023-05-17T03:01:03.813Z,99.99
2023-05-17T03:02:03.401Z,99.99
2023-05-17T03:03:02.540Z,99.99
2023-05-17T03:04:03.391Z,99.99
2023-05-17T03:05:02.466Z,99.99
2023-05-17T03:06:03.321Z,99.99
2023-05-17T03:07:05.071Z,99.99
2023-05-17T03:08:03.231Z,99.99
2023-05-17T03:09:02.426Z,99.99
2023-05-17T03:10:03.247Z,99.99
2023-05-17T03:11:03.177Z,99.99
2023-05-17T03:12:02.394Z,99.99
2023-05-17T03:13:03.232Z,99.99
2023-05-17T03:14:03.285Z,99.99
2023-05-17T03:15:03.303Z,99.99
2023-05-17T03:16:03.219Z,99.99
2023-05-17T03:17:02.356Z,99.99
2023-05-17T03:18:03.904Z,99.99
2023-05-17T03:19:03.686Z,99.99
2023-05-17T03:20:02.949Z,99.99
2023-05-17T03:21:02.300Z,99.99
2023-05-17T03:22:04.198Z,99.99
2023-05-17T03:23:03.608Z,99.99
2023-05-17T03:24:03.005Z,99.99
2023-05-17T03:25:03.254Z,99.99
2023-05-17T03:26:02.988Z,99.99
2023-05-17T03:27:03.155Z,99.99
2023-05-17T03:28:03.057Z,99.99
2023-05-17T03:29:02.238Z,99.99
2023-05-17T03:30:03.855Z,99.99
2023-05-17T03:31:03.652Z,99.99
2023-05-17T03:32:02.195Z,99.99
2023-05-17T03:33:04.489Z,99.99
2023-05-17T03:34:04.080Z,99.99
2023-05-17T03:35:02.147Z,99.99
2023-05-17T03:36:04.138Z,99.99
2023-05-17T03:37:03.365Z,99.99
2023-05-17T03:38:03.026Z,99.99
2023-05-17T03:39:02.816Z,99.99
2023-05-17T03:40:02.994Z,99.99
2023-05-17T03:41:02.095Z,99.99
2023-05-17T03:42:04.054Z,99.99
2023-05-17T03:43:03.462Z,99.99
2023-05-17T03:44:02.167Z,99.99
2023-05-17T03:45:02.884Z,99.99
2023-05-17T03:46:02.873Z,99.99
2023-05-17T03:47:02.064Z,99.99
2023-05-17T03:48:02.632Z,99.99
2023-05-17T03:49:02.171Z,99.99
2023-05-17T03:50:03.713Z,99.99
2023-05-17T03:51:03.119Z,99.99
2023-05-17T03:52:02.604Z,99.99
2023-05-17T03:53:02.791Z,99.99
2023-05-17T03:54:02.685Z,99.99
2023-05-17T03:55:02.883Z,99.99
2023-05-17T03:56:01.956Z,99.99
2023-05-17T03:57:02.039Z,99.99
2023-05-17T03:58:02.670Z,99.99
2023-05-17T03:59:02.756Z,99.99
2023-05-17T04:00:01.935Z,99.99
2023-05-17T04:01:03.218Z,99.99
2023-05-17T04:02:02.778Z,99.99
2023-05-17T04:03:01.901Z,99.99
2023-05-17T04:04:03.256Z,99.99
2023-05-17T04:05:02.662Z,99.99
2023-05-17T04:06:02.723Z,99.99
2023-05-17T04:07:01.856Z,99.99
2023-05-17T04:08:03.655Z,99.99
2023-05-17T04:09:02.667Z,99.99
2023-05-17T04:10:02.964Z,99.99
2023-05-17T04:11:01.770Z,99.99
2023-05-17T04:12:03.630Z,99.99
2023-05-17T04:13:03.509Z,99.99
2023-05-17T04:14:01.757Z,99.99
2023-05-17T04:15:02.429Z,99.99
2023-05-17T04:16:01.756Z,99.99
2023-05-17T04:17:03.511Z,99.99
2023-05-17T04:18:02.992Z,99.99
2023-05-17T04:19:02.558Z,99.99
2023-05-17T04:20:01.699Z,99.99
2023-05-17T04:21:02.525Z,99.99
2023-05-17T04:22:01.682Z,99.99
2023-05-17T04:23:02.620Z,99.99
2023-05-17T04:24:02.364Z,99.99
2023-05-17T04:25:02.516Z,99.99
2023-05-17T04:26:02.019Z,99.99
2023-05-17T04:27:03.744Z,99.99
2023-05-17T04:28:03.208Z,99.99
2023-05-17T04:29:01.703Z,99.99
2023-05-17T04:30:01.603Z,99.99
2023-05-17T04:31:03.290Z,99.99
2023-05-17T04:32:02.913Z,99.99
2023-05-17T04:33:02.484Z,99.99
2023-05-17T04:34:01.686Z,99.99
2023-05-17T04:35:02.244Z,99.99
2023-05-17T04:36:01.742Z,99.99
2023-05-17T04:37:03.163Z,99.99
2023-05-17T04:38:02.719Z,99.99
2023-05-17T04:39:01.618Z,99.99
2023-05-17T04:40:02.451Z,99.99
2023-05-17T04:41:02.678Z,99.99
2023-05-17T04:42:02.327Z,99.99
2023-05-17T04:43:02.184Z,99.99
2023-05-17T04:44:01.742Z,99.99
2023-05-17T04:45:02.272Z,99.99
2023-05-17T04:46:01.458Z,99.99
2023-05-17T04:47:02.284Z,99.99
2023-05-17T04:48:01.626Z,99.99
2023-05-17T04:49:03.044Z,99.99
2023-05-17T04:50:03.186Z,99.99
2023-05-17T04:51:02.257Z,99.99
2023-05-17T04:52:03.524Z,99.99
2023-05-17T04:53:01.857Z,99.99
2023-05-17T04:54:01.381Z,99.99
2023-05-17T04:55:03.078Z,99.99
2023-05-17T04:56:02.480Z,99.99
2023-05-17T04:57:02.452Z,99.99
2023-05-17T04:58:01.312Z,99.99
2023-05-17T04:59:02.909Z,99.99
2023-05-17T05:00:02.443Z,99.99
2023-05-17T05:01:02.137Z,99.99
2023-05-17T05:02:02.900Z,99.99
2023-05-17T05:03:02.146Z,99.99
2023-05-17T05:04:01.334Z,99.99
2023-05-17T05:05:03.419Z,99.99
2023-05-17T05:06:02.712Z,99.99
2023-05-17T05:07:01.306Z,99.99
2023-05-17T05:08:01.228Z,99.99
2023-05-17T05:09:03.276Z,99.99
2023-05-17T05:10:01.997Z,99.99
2023-05-17T05:11:01.169Z,99.99
2023-05-17T05:12:03.125Z,99.99
2023-05-17T05:13:01.966Z,99.99
2023-05-17T05:14:02.071Z,99.99
2023-05-17T05:15:01.898Z,99.99
2023-05-17T05:16:01.183Z,99.99
2023-05-17T05:17:01.919Z,99.99
2023-05-17T05:18:01.285Z,99.99
2023-05-17T05:19:02.039Z,99.99
2023-05-17T05:20:01.090Z,99.99
2023-05-17T05:21:01.830Z,99.99
2023-05-17T05:22:01.062Z,99.99
2023-05-17T05:23:02.981Z,99.99
2023-05-17T05:24:02.745Z,99.99
2023-05-17T05:25:02.853Z,99.99
2023-05-17T05:26:01.024Z,99.99
2023-05-17T05:27:02.593Z,99.99
2023-05-17T05:28:02.522Z,99.99
2023-05-17T05:29:01.085Z,99.99
2023-05-17T05:30:02.145Z,99.99
2023-05-17T05:31:02.017Z,99.99
2023-05-17T05:32:01.105Z,99.99
2023-05-17T05:33:03.231Z,99.99
2023-05-17T05:34:01.789Z,99.99
2023-05-17T05:35:01.942Z,99.99
2023-05-17T05:36:01.941Z,99.99
2023-05-17T05:37:01.595Z,99.99
2023-05-17T05:38:00.980Z,99.99
2023-05-17T05:39:02.344Z,99.99
2023-05-17T05:40:02.041Z,99.99
2023-05-17T05:41:01.745Z,99.99
2023-05-17T05:42:00.835Z,99.99
2023-05-17T05:43:03.095Z,99.99
2023-05-17T05:44:02.459Z,99.99
2023-05-17T05:45:01.734Z,99.99
2023-05-17T05:46:00.822Z,99.99
2023-05-17T05:47:02.547Z,99.99
2023-05-17T05:48:02.799Z,99.99
2023-05-17T05:49:01.739Z,99.99
2023-05-17T05:50:00.768Z,99.99
2023-05-17T05:51:01.554Z,99.99
2023-05-17T05:52:00.737Z,99.99
2023-05-17T05:53:10.987Z,99.99
2023-05-17T05:54:02.494Z,99.99
2023-05-17T05:55:01.599Z,99.99
2023-05-17T05:56:00.761Z,99.99
2023-05-17T05:57:01.695Z,99.99
2023-05-17T05:58:00.751Z,99.99
2023-05-17T05:59:02.403Z,99.99
2023-05-17T06:00:02.088Z,99.99
2023-05-17T06:01:02.825Z,99.99
2023-05-17T06:02:01.397Z,99.99
2023-05-17T06:03:01.532Z,99.99
2023-05-17T06:04:00.622Z,99.99
2023-05-17T06:05:02.658Z,99.99
2023-05-17T06:06:02.245Z,99.99
2023-05-17T06:07:00.695Z,99.99
2023-05-17T06:08:02.165Z,99.99
2023-05-17T06:09:01.598Z,99.99
2023-05-17T06:10:00.588Z,99.56
2023-05-17T06:11:01.200Z,99.99
2023-05-17T06:12:00.640Z,99.99
2023-05-17T06:13:01.804Z,99.99
2023-05-17T06:14:01.042Z,99.15
2023-05-17T06:15:00.517Z,99.77
2023-05-17T06:16:02.379Z,99.99
2023-05-17T06:17:01.955Z,99.99
2023-05-17T06:18:00.707Z,99.98
2023-05-17T06:19:01.906Z,99.99
2023-05-17T06:20:01.690Z,99.99
2023-05-17T06:21:00.442Z,99.99
2023-05-17T06:22:02.387Z,98.74
2023-05-17T06:23:02.273Z,99.87
2023-05-17T06:24:01.435Z,98.65
2023-05-17T06:25:00.420Z,99.99
2023-05-17T06:26:02.015Z,99.36
2023-05-17T06:27:00.400Z,99.98
2023-05-17T06:28:00.368Z,99.99
2023-05-17T06:29:00.430Z,98.65
2023-05-17T06:30:01.781Z,99.77
2023-05-17T06:31:01.200Z,99.77
2023-05-17T06:32:00.543Z,99.99
2023-05-17T06:33:02.217Z,99.56
2023-05-17T06:34:01.184Z,99.99
2023-05-17T06:35:01.215Z,99.99
2023-05-17T06:37:01.118Z,99.99
2023-05-17T06:38:00.297Z,99.99
2023-05-17T06:39:02.167Z,99.99
2023-05-17T06:40:10.277Z,99.99
2023-05-17T06:41:00.958Z,99.99
2023-05-17T06:42:00.243Z,99.99
2023-05-17T06:43:00.879Z,99.99
2023-05-17T06:44:00.233Z,99.99
2023-05-17T06:45:02.441Z,99.99
2023-05-17T06:46:01.908Z,99.82
2023-05-17T06:47:00.166Z,99.93
2023-05-17T06:48:02.128Z,98.49
2023-05-17T06:49:02.013Z,99.82
2023-05-17T06:50:00.183Z,99.99
2023-05-17T06:51:02.197Z,99.99
2023-05-17T06:52:01.074Z,99.99
2023-05-17T06:53:00.162Z,99.99
2023-05-17T06:54:01.565Z,99.99
2023-05-17T06:55:00.409Z,99.78
2023-05-17T06:56:02.117Z,99.37
2023-05-17T06:57:01.846Z,99.99
2023-05-17T06:58:00.790Z,97.16
2023-05-17T06:59:00.892Z,98.08
2023-05-17T07:00:00.230Z,98.70
2023-05-17T07:01:00.887Z,99.11
2023-05-17T07:02:00.571Z,99.62
2023-05-17T07:03:01.637Z,99.21
2023-05-17T07:04:01.071Z,99.99
2023-05-17T07:05:00.056Z,99.99
2023-05-17T07:06:01.522Z,99.52
2023-05-17T07:07:01.422Z,99.99
2023-05-17T07:08:00.765Z,99.47
2023-05-17T07:09:00.019Z,99.16
2023-05-17T07:10:01.582Z,96.75
2023-05-17T07:11:01.407Z,97.16
2023-05-17T07:11:59.913Z,96.86
2023-05-17T07:13:00.658Z,98.04
2023-05-17T07:13:59.923Z,98.55
2023-05-17T07:15:00.634Z,98.24
2023-05-17T07:15:59.917Z,96.30
2023-05-17T07:17:02.013Z,96.81
2023-05-17T07:18:01.826Z,97.94
2023-05-17T07:19:02.598Z,96.81
2023-05-17T07:20:02.682Z,97.22
2023-05-17T07:21:00.604Z,96.92
2023-05-17T07:21:59.863Z,97.12
2023-05-17T07:23:01.217Z,97.83
2023-05-17T07:24:01.138Z,96.55
2023-05-17T07:24:59.797Z,98.14
2023-05-17T07:26:00.434Z,97.12
2023-05-17T07:26:59.768Z,96.55
2023-05-17T07:28:00.356Z,96.04
2023-05-17T07:29:00.596Z,96.75
2023-05-17T07:29:59.755Z,96.20
2023-05-17T07:31:01.651Z,95.43
2023-05-17T07:32:00.381Z,95.84
2023-05-17T07:33:00.595Z,96.14
2023-05-17T07:34:00.411Z,96.96
2023-05-17T07:35:00.492Z,96.81
2023-05-17T07:36:00.395Z,96.41
2023-05-17T07:36:59.675Z,96.20
2023-05-17T07:38:00.407Z,95.89
2023-05-17T07:39:00.476Z,95.48
2023-05-17T07:40:00.416Z,94.87
2023-05-17T07:41:00.310Z,95.28
2023-05-17T07:42:00.388Z,94.67
2023-05-17T07:43:00.327Z,95.28
2023-05-17T07:43:59.607Z,94.46
2023-05-17T07:45:00.343Z,95.34
2023-05-17T07:46:00.357Z,94.87
2023-05-17T07:47:00.417Z,95.38
2023-05-17T07:48:00.443Z,96.77
2023-05-17T07:49:00.317Z,95.85
2023-05-17T07:50:00.382Z,95.95
2023-05-17T07:51:00.206Z,95.85
2023-05-17T07:52:00.500Z,94.62
2023-05-17T07:53:00.222Z,93.70
2023-05-17T07:54:00.337Z,94.82
2023-05-17T07:54:59.496Z,95.54
2023-05-17T07:56:01.404Z,96.15
2023-05-17T07:57:00.228Z,95.54
2023-05-17T07:57:59.464Z,96.26
2023-05-17T07:59:00.247Z,96.00
2023-05-17T07:59:59.449Z,95.59
2023-05-17T08:01:01.078Z,95.79
2023-05-17T08:02:00.176Z,95.89
2023-05-17T08:03:00.425Z,95.59
2023-05-17T08:04:00.304Z,95.18
2023-05-17T08:04:59.422Z,95.89
2023-05-17T08:06:00.757Z,95.79
2023-05-17T08:07:00.318Z,96.92
2023-05-17T08:08:00.058Z,96.55
2023-05-17T08:09:00.097Z,96.04
2023-05-17T08:10:00.115Z,95.53
2023-05-17T08:11:00.473Z,95.53
2023-05-17T08:11:59.317Z,96.04
2023-05-17T08:13:00.205Z,95.84
2023-05-17T08:14:00.200Z,95.98
2023-05-17T08:14:59.877Z,95.94
2023-05-17T08:16:08.885Z,97.06
2023-05-17T08:16:59.956Z,96.04
2023-05-17T08:18:00.912Z,96.75
2023-05-17T08:18:59.412Z,95.63
2023-05-17T08:20:00.170Z,96.59
2023-05-17T08:20:59.242Z,97.06
2023-05-17T08:22:00.055Z,95.47
2023-05-17T08:22:59.220Z,96.14
2023-05-17T08:24:03.321Z,96.14
2023-05-17T08:25:00.895Z,95.53
2023-05-17T08:25:59.176Z,96.75
2023-05-17T08:26:59.865Z,96.75
2023-05-17T08:27:59.786Z,95.84
2023-05-17T08:28:59.908Z,95.63
2023-05-17T08:29:59.114Z,95.73
2023-05-17T08:30:59.870Z,95.43
2023-05-17T08:31:59.754Z,94.92
2023-05-17T08:33:00.002Z,96.20
2023-05-17T08:33:59.831Z,95.89
2023-05-17T08:35:00.194Z,94.97
2023-05-17T08:35:59.834Z,94.77
2023-05-17T08:37:00.232Z,94.87
2023-05-17T08:38:00.115Z,95.79
2023-05-17T08:38:59.833Z,95.59
2023-05-17T08:39:59.821Z,94.56
2023-05-17T08:40:59.953Z,95.79
2023-05-17T08:42:01.250Z,96.10
2023-05-17T08:42:59.900Z,95.38
2023-05-17T08:44:00.033Z,94.67
2023-05-17T08:44:59.850Z,95.18
2023-05-17T08:46:00.610Z,96.51
2023-05-17T08:46:59.205Z,96.61
2023-05-17T08:47:59.817Z,96.05
2023-05-17T08:48:59.657Z,94.26
2023-05-17T08:49:59.186Z,95.23
2023-05-17T08:50:59.933Z,94.93
2023-05-17T08:51:59.721Z,95.13
2023-05-17T08:52:59.647Z,95.44
2023-05-17T08:53:59.689Z,95.34
2023-05-17T08:54:59.963Z,94.82
2023-05-17T08:55:59.106Z,94.11
2023-05-17T08:57:00.911Z,94.52
2023-05-17T08:58:00.142Z,94.52
2023-05-17T08:59:00.042Z,94.82
2023-05-17T08:59:59.795Z,94.52
2023-05-17T09:01:00.027Z,94.82
2023-05-17T09:01:59.769Z,94.77
2023-05-17T09:02:59.174Z,94.56
2023-05-17T09:04:00.614Z,96.51
2023-05-17T09:05:00.351Z,96.61
2023-05-17T09:05:59.540Z,96.92
2023-05-17T09:06:59.130Z,96.71
2023-05-17T09:07:59.658Z,96.87
2023-05-17T09:08:59.840Z,95.75
2023-05-17T09:09:59.436Z,95.85
2023-05-17T09:10:58.727Z,96.56
2023-05-17T09:12:00.180Z,95.95
2023-05-17T09:12:59.899Z,95.85
2023-05-17T09:13:59.488Z,96.46
2023-05-17T09:14:59.330Z,95.75
2023-05-17T09:15:58.666Z,95.75
2023-05-17T09:16:59.253Z,95.44
2023-05-17T09:17:59.595Z,94.77
2023-05-17T09:18:59.640Z,94.97
2023-05-17T09:19:59.893Z,95.44
2023-05-17T09:20:59.287Z,95.95
2023-05-17T09:21:58.646Z,95.54
2023-05-17T09:22:59.279Z,95.23
2023-05-17T09:24:06.394Z,95.23
2023-05-17T09:25:00.059Z,96.05
2023-05-17T09:25:58.922Z,96.05
2023-05-17T09:27:00.008Z,96.56
2023-05-17T09:27:59.510Z,96.46
2023-05-17T09:28:59.294Z,96.97
2023-05-17T09:29:58.509Z,95.64
2023-05-17T09:30:59.230Z,95.95
2023-05-17T09:31:59.096Z,96.05
2023-05-17T09:32:59.411Z,95.95
2023-05-17T09:33:58.672Z,95.95
2023-05-17T09:34:59.297Z,95.85
2023-05-17T09:35:58.462Z,95.90
2023-05-17T09:37:00.114Z,94.11
2023-05-17T09:37:59.127Z,94.93
2023-05-17T09:38:58.446Z,94.52
2023-05-17T09:40:00.172Z,94.62
2023-05-17T09:41:00.067Z,94.89
2023-05-17T09:41:59.144Z,95.19
2023-05-17T09:42:58.370Z,93.45
2023-05-17T09:43:59.147Z,93.55
2023-05-17T09:44:59.032Z,94.37
2023-05-17T09:45:59.222Z,93.45
2023-05-17T09:46:58.330Z,92.84
2023-05-17T09:47:59.205Z,94.48
2023-05-17T09:48:59.053Z,94.27
2023-05-17T09:49:59.312Z,93.86
2023-05-17T09:50:58.962Z,94.27
2023-05-17T09:51:58.309Z,94.17
2023-05-17T09:52:58.925Z,94.64
2023-05-17T09:53:58.252Z,94.94
2023-05-17T09:54:59.635Z,95.96
2023-05-17T09:55:59.239Z,95.00
2023-05-17T09:56:58.233Z,95.25
2023-05-17T09:57:59.934Z,95.15
2023-05-17T09:58:59.282Z,95.04
2023-05-17T09:59:58.361Z,94.64
2023-05-17T10:00:59.824Z,94.84
2023-05-17T10:01:59.572Z,96.22
2023-05-17T10:02:58.498Z,96.12
2023-05-17T10:04:00.243Z,95.92
2023-05-17T10:04:59.726Z,92.96
2023-05-17T10:05:58.834Z,93.67
2023-05-17T10:06:58.974Z,92.96
2023-05-17T10:07:58.122Z,93.77
2023-05-17T10:08:59.343Z,92.86
2023-05-17T10:09:58.904Z,92.55
2023-05-17T10:10:58.085Z,94.70
2023-05-17T10:11:59.803Z,92.24
2023-05-17T10:12:59.873Z,93.88
2023-05-17T10:13:58.964Z,93.32
2023-05-17T10:14:58.149Z,94.75
2023-05-17T10:15:59.607Z,94.34
2023-05-17T10:16:59.084Z,93.02
2023-05-17T10:17:58.922Z,94.55
2023-05-17T10:18:58.140Z,94.40
2023-05-17T10:19:59.835Z,94.40
2023-05-17T10:20:59.725Z,92.97
2023-05-17T10:22:10.993Z,91.35
2023-05-17T10:22:59.004Z,92.97
2023-05-17T10:23:58.983Z,93.18
2023-05-17T10:24:57.964Z,88.63
2023-05-17T10:25:58.785Z,89.79
2023-05-17T10:26:58.626Z,90.20
2023-05-17T10:27:57.902Z,92.35
2023-05-17T10:28:58.644Z,94.04
2023-05-17T10:29:58.725Z,92.41
2023-05-17T10:30:58.784Z,90.71
2023-05-17T10:31:57.875Z,92.86
2023-05-17T10:32:59.680Z,93.12
2023-05-17T10:33:58.591Z,91.49
2023-05-17T10:35:10.537Z,93.63
2023-05-17T10:35:59.299Z,94.04
2023-05-17T10:36:58.774Z,93.89
2023-05-17T10:37:58.526Z,93.79
2023-05-17T10:38:58.849Z,90.32
2023-05-17T10:39:58.576Z,89.81
2023-05-17T10:40:57.780Z,90.63
2023-05-17T10:42:13.446Z,91.75
2023-05-17T10:42:59.341Z,92.97
2023-05-17T10:43:58.487Z,92.57
2023-05-17T10:44:58.623Z,92.05
2023-05-17T10:45:58.500Z,92.36
2023-05-17T10:46:57.704Z,91.75
2023-05-17T10:48:01.088Z,92.67
2023-05-17T10:48:59.285Z,91.44
2023-05-17T10:49:58.580Z,90.22
2023-05-17T10:51:01.920Z,91.85
2023-05-17T10:51:57.667Z,92.36
2023-05-17T10:52:57.662Z,91.03
2023-05-17T10:53:58.450Z,91.96
2023-05-17T10:54:58.323Z,92.26
2023-05-17T10:55:58.453Z,92.05
2023-05-17T10:56:57.666Z,90.01
2023-05-17T10:57:58.792Z,92.77
2023-05-17T10:58:58.336Z,92.67
2023-05-17T10:59:57.612Z,93.18
2023-05-17T11:00:59.139Z,92.87
2023-05-17T11:01:58.850Z,93.28
2023-05-17T11:02:57.585Z,94.15
2023-05-17T11:03:58.263Z,94.35
2023-05-17T11:04:58.405Z,92.72
2023-05-17T11:05:58.234Z,90.99
2023-05-17T11:06:57.500Z,92.22
2023-05-17T11:07:58.807Z,91.61
2023-05-17T11:08:58.331Z,91.50
2023-05-17T11:09:57.481Z,91.40
2023-05-17T11:10:58.293Z,91.20
2023-05-17T11:11:58.401Z,91.40
2023-05-17T11:12:57.457Z,92.52
2023-05-17T11:13:58.241Z,90.59
2023-05-17T11:14:58.263Z,91.40
2023-05-17T11:15:58.147Z,88.04
2023-05-17T11:16:58.338Z,89.57
2023-05-17T11:17:58.820Z,91.61
2023-05-17T11:18:58.237Z,89.36
2023-05-17T11:19:58.573Z,90.22
2023-05-17T11:20:57.415Z,91.85
2023-05-17T11:21:58.943Z,90.79
2023-05-17T11:22:58.605Z,91.61
2023-05-17T11:23:58.821Z,91.40
2023-05-17T11:24:58.021Z,91.71
2023-05-17T11:26:05.679Z,89.71
2023-05-17T11:26:58.079Z,91.35
2023-05-17T11:27:57.310Z,91.81
2023-05-17T11:28:57.972Z,91.09
2023-05-17T11:29:57.271Z,91.35
2023-05-17T11:30:59.131Z,92.22
2023-05-17T11:31:58.107Z,91.81
2023-05-17T11:32:58.114Z,90.42
2023-05-17T11:33:57.272Z,91.24
2023-05-17T11:34:58.011Z,88.49
2023-05-17T11:35:58.006Z,91.03
2023-05-17T11:36:57.246Z,90.22
2023-05-17T11:37:57.982Z,89.00
2023-05-17T11:39:07.457Z,91.44
2023-05-17T11:39:58.638Z,91.35
2023-05-17T11:40:57.968Z,92.57
2023-05-17T11:41:57.157Z,91.96
2023-05-17T11:42:58.894Z,91.65
2023-05-17T11:43:57.934Z,91.85
2023-05-17T11:44:57.923Z,90.53
2023-05-17T11:45:57.881Z,92.87
2023-05-17T11:46:57.999Z,91.24
2023-05-17T11:47:59.238Z,91.24
2023-05-17T11:48:57.775Z,88.79
2023-05-17T11:49:57.844Z,90.01
2023-05-17T11:50:58.919Z,91.14
2023-05-17T11:51:57.804Z,90.94
2023-05-17T11:52:57.742Z,91.65
2023-05-17T11:53:58.121Z,91.69
2023-05-17T11:54:58.718Z,91.59
2023-05-17T11:55:57.132Z,92.71
2023-05-17T11:56:58.716Z,92.41
2023-05-17T11:57:58.110Z,91.59
2023-05-17T11:58:57.676Z,91.79
2023-05-17T11:59:57.843Z,91.39
2023-05-17T12:00:56.960Z,91.59
2023-05-17T12:01:57.813Z,91.49
2023-05-17T12:02:57.864Z,91.59
2023-05-17T12:03:56.935Z,91.59
2023-05-17T12:04:58.756Z,91.79
2023-05-17T12:05:57.629Z,92.10
2023-05-17T12:06:56.908Z,90.57
2023-05-17T12:07:57.543Z,91.39
2023-05-17T12:08:56.891Z,90.10
2023-05-17T12:09:58.804Z,89.49
2023-05-17T12:10:58.300Z,89.49
2023-05-17T12:11:56.851Z,89.69
2023-05-17T12:12:57.793Z,90.51
2023-05-17T12:13:56.823Z,89.39
2023-05-17T12:14:58.451Z,89.08
2023-05-17T12:15:58.453Z,89.18
2023-05-17T12:16:56.791Z,90.10
2023-05-17T12:17:57.642Z,90.10
2023-05-17T12:18:56.917Z,91.22
2023-05-17T12:19:58.560Z,91.74
2023-05-17T12:20:57.446Z,89.39
2023-05-17T12:21:56.747Z,88.57
2023-05-17T12:22:58.396Z,91.33
2023-05-17T12:23:57.846Z,91.83
2023-05-17T12:24:56.768Z,90.31
2023-05-17T12:25:57.563Z,89.28
2023-05-17T12:26:57.365Z,89.75
2023-05-17T12:27:56.672Z,89.14
2023-05-17T12:28:58.729Z,91.49
2023-05-17T12:29:57.621Z,91.59
2023-05-17T12:30:56.639Z,92.97
2023-05-17T12:31:58.335Z,92.46
2023-05-17T12:32:58.168Z,89.71
2023-05-17T12:33:56.670Z,88.79
2023-05-17T12:34:58.040Z,90.32
2023-05-17T12:35:57.224Z,90.83
2023-05-17T12:36:57.308Z,92.05
2023-05-17T12:37:56.579Z,92.05
2023-05-17T12:38:57.385Z,89.71
2023-05-17T12:39:57.211Z,89.61
2023-05-17T12:40:56.538Z,90.12
2023-05-17T12:41:58.237Z,87.61
2023-05-17T12:42:57.329Z,92.67
2023-05-17T12:44:13.886Z,94.40
2023-05-17T12:44:57.370Z,92.93
2023-05-17T12:45:57.172Z,90.94
2023-05-17T12:46:57.315Z,89.40
2023-05-17T12:47:57.360Z,91.03
2023-05-17T12:48:57.357Z,91.96
2023-05-17T12:49:57.198Z,90.98
2023-05-17T12:50:57.119Z,92.57
2023-05-17T12:51:56.425Z,93.69
2023-05-17T12:52:57.127Z,92.16